createdAt,value
2019-03-13T00:01:30.537Z,11.43
2019-03-13T00:04:00.527Z,11.46
2019-03-13T00:06:30.502Z,11.48
2019-03-13T00:09:00.608Z,11.48
2019-03-13T00:11:30.801Z,11.34
2019-03-13T00:14:00.981Z,11.58
2019-03-13T00:16:31.171Z,11.52
2019-03-13T00:19:01.146Z,11.59
2019-03-13T00:21:31.031Z,11.51
2019-03-13T00:24:01.155Z,11.32
2019-03-13T00:26:31.305Z,11.48
2019-03-13T00:29:01.489Z,11.56
2019-03-13T00:31:31.584Z,11.46
2019-03-13T00:34:01.705Z,11.44
2019-03-13T00:36:31.603Z,11.56
2019-03-13T00:39:01.532Z,11.45
2019-03-13T00:41:33.356Z,11.50
2019-03-13T00:44:03.359Z,11.39
2019-03-13T00:46:33.533Z,11.65
2019-03-13T00:49:03.483Z,11.16
2019-03-13T00:51:36.720Z,11.55
2019-03-13T00:54:05.634Z,11.51
2019-03-13T00:56:35.770Z,11.46
2019-03-13T00:59:05.696Z,11.42
2019-03-13T01:01:52.607Z,11.66
2019-03-13T01:04:26.891Z,11.52
2019-03-13T01:07:00.431Z,11.39
2019-03-13T01:09:30.908Z,11.52
2019-03-13T01:12:00.842Z,11.73
2019-03-13T01:14:30.747Z,11.57
2019-03-13T01:17:00.652Z,11.48
2019-03-13T01:19:30.550Z,11.29
2019-03-13T01:22:00.519Z,11.69
2019-03-13T01:24:30.470Z,11.04
2019-03-13T01:27:00.799Z,11.21
2019-03-13T01:29:31.037Z,11.23
2019-03-13T01:32:23.191Z,11.61
2019-03-13T01:35:15.579Z,10.63
2019-03-13T01:37:45.559Z,10.52
2019-03-13T01:40:15.985Z,10.51
2019-03-13T01:42:46.018Z,10.06
2019-03-13T01:45:17.956Z,10.21
2019-03-13T01:47:48.010Z,10.24
2019-03-13T01:50:17.939Z,10.12
2019-03-13T01:52:47.859Z,9.80
2019-03-13T01:55:18.183Z,10.23
2019-03-13T01:57:48.377Z,10.55
2019-03-13T02:00:18.560Z,9.56
2019-03-13T02:02:48.435Z,10.23
2019-03-13T02:05:18.322Z,9.79
2019-03-13T02:07:48.748Z,10.26
2019-03-13T02:10:19.173Z,10.97
2019-03-13T02:12:49.059Z,10.99
2019-03-13T02:15:20.210Z,10.90
2019-03-13T02:17:50.323Z,10.97
2019-03-13T02:20:20.449Z,10.51
2019-03-13T02:22:50.430Z,10.70
2019-03-13T02:25:20.486Z,10.72
2019-03-13T02:27:50.615Z,10.51
2019-03-13T02:30:25.942Z,10.40
2019-03-13T02:32:56.195Z,10.78
2019-03-13T02:35:26.309Z,10.72
2019-03-13T02:37:56.296Z,10.77
2019-03-13T02:40:26.176Z,10.81
2019-03-13T02:42:56.138Z,10.76
2019-03-13T02:45:26.070Z,10.69
2019-03-13T02:47:55.950Z,10.73
2019-03-13T02:50:25.875Z,10.86
2019-03-13T02:52:56.253Z,10.78
2019-03-13T02:55:26.637Z,10.75
2019-03-13T02:57:56.537Z,10.79
2019-03-13T03:00:47.333Z,10.85
2019-03-13T03:03:30.190Z,10.76
2019-03-13T03:06:00.479Z,10.78
2019-03-13T03:08:30.358Z,10.86
2019-03-13T03:11:00.270Z,10.85
2019-03-13T03:13:30.400Z,10.76
2019-03-13T03:16:00.358Z,10.75
2019-03-13T03:18:30.351Z,10.92
2019-03-13T03:21:00.231Z,10.82
2019-03-13T03:23:30.311Z,10.66
2019-03-13T03:26:02.168Z,9.82
2019-03-13T03:28:32.175Z,9.25
2019-03-13T03:31:02.113Z,9.03
2019-03-13T03:33:32.456Z,9.17
2019-03-13T03:36:02.344Z,9.19
2019-03-13T03:38:32.264Z,9.58
2019-03-13T03:41:02.403Z,9.19
2019-03-13T03:43:39.974Z,9.39
2019-03-13T03:46:04.183Z,9.31
2019-03-13T03:48:34.187Z,9.58
2019-03-13T03:51:04.056Z,9.70
2019-03-13T03:53:33.940Z,9.76
2019-03-13T03:56:03.845Z,10.00
2019-03-13T03:58:33.749Z,9.37
2019-03-13T04:01:03.653Z,8.99
2019-03-13T04:03:33.890Z,9.02
2019-03-13T04:06:03.971Z,8.50
2019-03-13T04:08:37.541Z,8.82
2019-03-13T04:11:05.546Z,8.69
2019-03-13T04:13:35.477Z,8.66
2019-03-13T04:16:05.548Z,8.58
2019-03-13T04:18:35.438Z,8.65
2019-03-13T04:21:05.406Z,8.37
2019-03-13T04:23:35.406Z,8.91
2019-03-13T04:26:05.762Z,8.88
2019-03-13T04:28:35.645Z,8.37
2019-03-13T04:31:05.844Z,8.72
2019-03-13T04:33:35.703Z,9.15
2019-03-13T04:36:05.681Z,8.93
2019-03-13T04:38:35.577Z,9.19
2019-03-13T04:41:05.547Z,8.96
2019-03-13T04:43:35.462Z,9.34
2019-03-13T04:46:05.409Z,9.03
2019-03-13T04:48:35.288Z,8.83
2019-03-13T04:51:05.479Z,9.25
2019-03-13T04:53:35.619Z,9.53
2019-03-13T04:56:05.510Z,8.83
2019-03-13T04:58:35.851Z,9.33
2019-03-13T05:01:05.730Z,9.66
2019-03-13T05:03:35.752Z,9.07
2019-03-13T05:06:19.503Z,8.51
2019-03-13T05:09:11.162Z,8.84
2019-03-13T05:11:41.320Z,9.15
2019-03-13T05:14:11.218Z,8.17
2019-03-13T05:16:41.109Z,8.57
2019-03-13T05:19:11.000Z,8.78
2019-03-13T05:21:40.896Z,9.05
2019-03-13T05:24:10.772Z,8.41
2019-03-13T05:26:40.664Z,8.67
2019-03-13T05:29:10.635Z,9.30
2019-03-13T05:31:40.519Z,8.26
2019-03-13T05:34:10.406Z,9.42
2019-03-13T05:36:40.306Z,9.44
2019-03-13T05:39:10.210Z,8.79
2019-03-13T05:41:40.498Z,9.48
2019-03-13T05:44:10.461Z,9.14
2019-03-13T05:46:40.567Z,9.05
2019-03-13T05:49:10.511Z,9.16
2019-03-13T05:51:40.781Z,8.60
2019-03-13T05:54:10.670Z,8.92
2019-03-13T05:56:41.065Z,8.65
2019-03-13T05:59:11.010Z,8.54
2019-03-13T06:01:40.896Z,8.95
2019-03-13T06:04:10.903Z,9.25
2019-03-13T06:06:40.991Z,9.58
2019-03-13T06:09:11.170Z,9.24
2019-03-13T06:11:41.179Z,8.61
2019-03-13T06:14:11.138Z,9.56
2019-03-13T06:16:41.440Z,9.72
2019-03-13T06:19:11.369Z,9.50
2019-03-13T06:21:41.305Z,9.87
2019-03-13T06:24:11.254Z,9.10
2019-03-13T06:26:41.514Z,9.13
2019-03-13T06:29:11.502Z,9.70
2019-03-13T06:31:41.543Z,9.72
2019-03-13T06:34:11.764Z,9.97
2019-03-13T06:36:41.743Z,10.09
2019-03-13T06:39:11.789Z,9.75
2019-03-13T06:41:42.123Z,9.85
2019-03-13T06:44:12.059Z,9.63
2019-03-13T06:46:41.991Z,9.27
2019-03-13T06:49:11.904Z,9.36
2019-03-13T06:51:42.222Z,9.44
2019-03-13T06:54:12.258Z,9.56
2019-03-13T06:56:42.204Z,8.89
2019-03-13T06:59:16.861Z,9.76
2019-03-13T07:02:05.537Z,9.76
2019-03-13T07:04:53.345Z,9.59
2019-03-13T07:07:31.682Z,10.26
2019-03-13T07:10:26.646Z,10.15
2019-03-13T07:13:24.362Z,10.02
2019-03-13T07:16:16.232Z,10.74
2019-03-13T07:19:09.443Z,10.55
2019-03-13T07:22:10.434Z,10.63
2019-03-13T07:24:51.239Z,10.80
2019-03-13T07:27:52.319Z,10.54
2019-03-13T07:30:37.490Z,10.79
2019-03-13T07:33:26.689Z,10.00
2019-03-13T07:36:03.880Z,10.65
2019-03-13T07:38:40.407Z,10.55
2019-03-13T07:41:25.260Z,10.99
2019-03-13T07:44:13.238Z,10.99
2019-03-13T07:46:52.812Z,11.04
2019-03-13T07:49:44.594Z,11.04
2019-03-13T07:52:39.741Z,10.78
2019-03-13T07:55:18.414Z,11.25
2019-03-13T07:58:16.607Z,10.93
2019-03-13T08:01:07.932Z,10.78
2019-03-13T08:03:55.649Z,10.88
2019-03-13T08:06:47.654Z,10.46
2019-03-13T08:09:28.960Z,10.29
2019-03-13T08:12:16.954Z,10.90
2019-03-13T08:14:54.996Z,10.91
2019-03-13T08:17:37.893Z,10.25
2019-03-13T08:20:19.334Z,9.91
2019-03-13T08:23:06.809Z,10.58
2019-03-13T08:25:45.366Z,11.13
2019-03-13T08:28:46.868Z,10.88
2019-03-13T08:31:30.277Z,9.96
2019-03-13T08:34:13.781Z,10.46
2019-03-13T08:36:49.915Z,11.28
2019-03-13T08:39:39.018Z,11.41
2019-03-13T08:42:18.639Z,11.19
2019-03-13T08:45:03.633Z,10.91
2019-03-13T08:47:48.646Z,10.94
2019-03-13T08:50:46.422Z,11.09
2019-03-13T08:53:24.556Z,11.26
2019-03-13T08:56:12.599Z,11.40
2019-03-13T08:58:53.350Z,11.46
2019-03-13T09:01:41.682Z,11.25
2019-03-13T09:04:31.670Z,11.70
2019-03-13T09:07:23.723Z,11.83
2019-03-13T09:10:28.244Z,11.65
2019-03-13T09:13:19.804Z,12.78
2019-03-13T09:16:06.574Z,12.58
2019-03-13T09:18:44.738Z,11.29
2019-03-13T09:21:27.001Z,11.33
2019-03-13T09:24:05.996Z,10.98
2019-03-13T09:26:54.836Z,11.35
2019-03-13T09:29:37.089Z,11.53
2019-03-13T09:32:35.819Z,12.10
2019-03-13T09:35:28.333Z,11.53
2019-03-13T09:38:29.283Z,10.91
2019-03-13T09:41:08.742Z,11.32
2019-03-13T09:43:59.677Z,11.60
2019-03-13T09:46:39.075Z,12.02
2019-03-13T09:49:31.245Z,10.89
2019-03-13T09:52:14.079Z,11.35
2019-03-13T09:55:04.355Z,10.85
2019-03-13T09:57:58.902Z,10.53
2019-03-13T10:00:47.395Z,10.78
2019-03-13T10:03:22.341Z,11.04
2019-03-13T10:06:31.816Z,10.95
2019-03-13T10:09:26.648Z,11.05
2019-03-13T10:12:24.812Z,11.32
2019-03-13T10:15:03.367Z,11.77
2019-03-13T10:17:52.059Z,11.70
2019-03-13T10:20:39.604Z,11.68
2019-03-13T10:23:27.807Z,12.00
2019-03-13T10:26:06.505Z,11.11
2019-03-13T10:29:04.267Z,11.32
2019-03-13T10:31:52.154Z,11.76
2019-03-13T10:34:41.538Z,12.16
2019-03-13T10:37:34.646Z,11.53
2019-03-13T10:40:23.645Z,11.46
2019-03-13T10:43:12.611Z,12.47
2019-03-13T10:45:49.863Z,12.72
2019-03-13T10:48:43.998Z,12.42
2019-03-13T10:51:29.696Z,12.82
2019-03-13T10:54:06.181Z,12.85
2019-03-13T10:56:43.337Z,12.35
2019-03-13T10:59:23.911Z,12.84
2019-03-13T11:02:11.281Z,11.89
2019-03-13T11:04:51.089Z,12.09
2019-03-13T11:07:42.852Z,12.04
2019-03-13T11:10:25.827Z,11.67
2019-03-13T11:13:09.294Z,12.52
2019-03-13T11:15:53.949Z,11.56
2019-03-13T11:18:32.657Z,11.85
2019-03-13T11:21:08.842Z,11.79
2019-03-13T11:24:01.242Z,12.56
2019-03-13T11:26:53.313Z,12.57
2019-03-13T11:29:48.318Z,12.39
2019-03-13T11:32:25.283Z,13.46
2019-03-13T11:35:09.931Z,12.29
2019-03-13T11:37:58.674Z,12.09
2019-03-13T11:40:37.391Z,12.55
2019-03-13T11:43:17.045Z,12.67
2019-03-13T11:45:58.496Z,12.59
2019-03-13T11:48:53.398Z,12.34
2019-03-13T11:51:42.414Z,12.81
2019-03-13T11:54:34.299Z,11.67
2019-03-13T11:57:24.791Z,12.26
2019-03-13T12:00:01.541Z,11.98
2019-03-13T12:02:41.788Z,12.33
2019-03-13T12:05:34.195Z,12.33
2019-03-13T12:08:22.077Z,11.92
2019-03-13T12:11:03.781Z,12.40
2019-03-13T12:13:51.834Z,12.84
2019-03-13T12:16:39.125Z,12.76
2019-03-13T12:19:30.801Z,11.91
2019-03-13T12:22:07.647Z,12.08
2019-03-13T12:24:48.950Z,12.18
2019-03-13T12:27:38.044Z,11.61
2019-03-13T12:30:27.846Z,11.94
2019-03-13T12:33:17.098Z,12.53
2019-03-13T12:35:54.571Z,12.08
2019-03-13T12:38:33.062Z,12.99
2019-03-13T12:41:21.977Z,12.57
2019-03-13T12:43:57.997Z,12.63
2019-03-13T12:46:37.524Z,12.91
2019-03-13T12:49:22.545Z,12.61
2019-03-13T12:52:04.603Z,12.54
2019-03-13T12:54:52.604Z,12.26
2019-03-13T12:57:52.922Z,12.51
2019-03-13T13:00:45.042Z,12.41
2019-03-13T13:03:25.826Z,12.34
2019-03-13T13:06:09.016Z,12.60
2019-03-13T13:09:06.686Z,12.38
2019-03-13T13:11:53.085Z,12.47
2019-03-13T13:14:41.955Z,12.51
2019-03-13T13:17:23.762Z,12.85
2019-03-13T13:19:53.758Z,12.04
2019-03-13T13:22:23.641Z,12.42
2019-03-13T13:24:53.562Z,12.08
2019-03-13T13:27:23.989Z,12.50
2019-03-13T13:29:53.896Z,12.57
2019-03-13T13:32:23.798Z,12.71
2019-03-13T13:34:53.697Z,12.69
2019-03-13T13:37:23.770Z,12.87
2019-03-13T13:39:53.663Z,12.69
2019-03-13T13:42:23.579Z,13.14
2019-03-13T13:44:53.547Z,13.10
2019-03-13T13:47:23.616Z,13.11
2019-03-13T13:49:59.614Z,12.79
2019-03-13T13:52:25.208Z,12.65
2019-03-13T13:54:55.163Z,13.25
2019-03-13T13:57:25.602Z,12.64
2019-03-13T13:59:55.601Z,12.50
2019-03-13T14:02:25.492Z,12.56
2019-03-13T14:04:55.471Z,12.75
2019-03-13T14:07:25.375Z,12.95
2019-03-13T14:09:55.293Z,13.37
2019-03-13T14:12:25.182Z,13.46
2019-03-13T14:14:55.332Z,13.09
2019-03-13T14:17:25.211Z,12.83
2019-03-13T14:19:55.425Z,13.15
2019-03-13T14:22:25.582Z,12.95
2019-03-13T14:24:55.496Z,12.01
2019-03-13T14:27:25.396Z,13.24
2019-03-13T14:29:55.432Z,12.23
2019-03-13T14:32:25.561Z,12.51
2019-03-13T14:34:55.617Z,12.17
2019-03-13T14:37:25.525Z,12.40
2019-03-13T14:39:55.751Z,12.93
2019-03-13T14:42:26.093Z,12.22
2019-03-13T14:44:56.241Z,12.84
2019-03-13T14:47:26.181Z,12.40
2019-03-13T14:49:56.186Z,13.28
2019-03-13T14:52:26.116Z,12.98
2019-03-13T14:54:56.260Z,13.09
2019-03-13T14:57:26.263Z,12.79
2019-03-13T14:59:56.192Z,12.83
2019-03-13T15:02:26.116Z,12.75
2019-03-13T15:04:56.061Z,12.40
2019-03-13T15:07:26.000Z,12.38
2019-03-13T15:09:55.938Z,12.84
2019-03-13T15:12:25.903Z,12.95
2019-03-13T15:14:56.343Z,12.81
2019-03-13T15:17:26.496Z,12.58
2019-03-13T15:19:56.627Z,12.30
2019-03-13T15:22:26.537Z,12.76
2019-03-13T15:24:56.735Z,12.26
2019-03-13T15:27:26.923Z,12.53
2019-03-13T15:29:56.885Z,12.42
2019-03-13T15:32:26.846Z,12.21
2019-03-13T15:34:56.805Z,12.04
2019-03-13T15:37:26.901Z,12.41
2019-03-13T15:39:56.853Z,12.88
2019-03-13T15:42:27.248Z,12.66
2019-03-13T15:44:57.205Z,13.10
2019-03-13T15:47:27.141Z,12.72
2019-03-13T15:49:57.047Z,12.69
2019-03-13T15:52:26.922Z,12.13
2019-03-13T15:54:57.009Z,12.18
2019-03-13T15:57:26.941Z,12.35
2019-03-13T15:59:57.126Z,12.60
2019-03-13T16:02:27.049Z,12.49
2019-03-13T16:04:56.975Z,12.32
2019-03-13T16:07:27.105Z,12.33
2019-03-13T16:09:56.990Z,12.80
2019-03-13T16:12:27.037Z,12.51
2019-03-13T16:14:56.954Z,12.31
2019-03-13T16:17:27.218Z,12.30
2019-03-13T16:19:57.728Z,12.05
2019-03-13T16:22:27.670Z,11.76
2019-03-13T16:24:57.593Z,11.94
2019-03-13T16:27:27.510Z,12.33
2019-03-13T16:29:58.091Z,12.24
2019-03-13T16:32:28.428Z,11.92
2019-03-13T16:34:58.350Z,11.82
2019-03-13T16:37:28.313Z,12.40
2019-03-13T16:39:58.468Z,11.80
2019-03-13T16:42:28.373Z,11.70
2019-03-13T16:44:58.522Z,11.96
2019-03-13T16:47:28.437Z,12.20
2019-03-13T16:49:58.363Z,12.40
2019-03-13T16:52:28.389Z,12.77
2019-03-13T16:54:58.670Z,11.84
2019-03-13T16:57:28.589Z,12.42
2019-03-13T17:00:00.835Z,11.57
2019-03-13T17:02:30.392Z,11.67
2019-03-13T17:05:00.441Z,12.15
2019-03-13T17:07:30.478Z,11.90
2019-03-13T17:10:00.615Z,11.83
2019-03-13T17:12:30.636Z,11.91
2019-03-13T17:15:00.567Z,11.76
2019-03-13T17:17:30.633Z,11.94
2019-03-13T17:20:00.738Z,11.67
2019-03-13T17:22:31.245Z,11.77
2019-03-13T17:25:01.515Z,11.60
2019-03-13T17:27:31.855Z,11.63
2019-03-13T17:30:02.130Z,11.83
2019-03-13T17:32:32.512Z,11.81
2019-03-13T17:35:02.454Z,12.45
2019-03-13T17:37:32.740Z,11.66
2019-03-13T17:40:02.760Z,12.00
2019-03-13T17:42:32.741Z,12.02
2019-03-13T17:45:02.868Z,12.13
2019-03-13T17:47:33.398Z,11.64
2019-03-13T17:50:03.335Z,11.72
2019-03-13T17:52:33.288Z,11.31
2019-03-13T17:55:03.376Z,11.63
2019-03-13T17:57:33.593Z,11.82
2019-03-13T18:00:05.231Z,11.49
2019-03-13T18:02:35.348Z,11.65
2019-03-13T18:05:05.988Z,11.33
2019-03-13T18:07:35.964Z,12.02
2019-03-13T18:10:07.999Z,11.79
2019-03-13T18:12:38.534Z,12.07
2019-03-13T18:15:09.346Z,11.77
2019-03-13T18:17:40.593Z,11.18
2019-03-13T18:20:13.706Z,11.22
2019-03-13T18:22:43.713Z,11.58
2019-03-13T18:25:17.861Z,11.48
2019-03-13T18:27:46.501Z,11.48
2019-03-13T18:30:19.988Z,11.03
2019-03-13T18:32:50.410Z,11.45
2019-03-13T18:35:20.903Z,11.04
2019-03-13T18:37:51.251Z,10.89
2019-03-13T18:40:21.303Z,11.35
2019-03-13T18:42:51.293Z,9.96
2019-03-13T18:45:24.126Z,10.35
2019-03-13T18:47:54.273Z,11.08
2019-03-13T18:50:24.490Z,11.03
2019-03-13T18:52:54.550Z,9.95
2019-03-13T18:55:24.772Z,10.02
2019-03-13T18:57:54.914Z,10.70
2019-03-13T19:00:30.200Z,11.24
2019-03-13T19:03:00.338Z,11.29
2019-03-13T19:05:30.613Z,11.25
2019-03-13T19:08:00.696Z,10.30
2019-03-13T19:10:30.627Z,10.92
2019-03-13T19:13:00.870Z,11.28
2019-03-13T19:15:31.505Z,11.34
2019-03-13T19:18:01.632Z,11.24
2019-03-13T19:20:32.142Z,10.87
2019-03-13T19:23:03.410Z,10.70
2019-03-13T19:25:33.472Z,10.68
2019-03-13T19:28:03.592Z,10.45
2019-03-13T19:30:33.821Z,11.02
2019-03-13T19:33:03.846Z,10.65
2019-03-13T19:35:33.885Z,10.94
2019-03-13T19:38:05.429Z,11.16
2019-03-13T19:40:35.779Z,11.02
2019-03-13T19:43:06.059Z,11.05
2019-03-13T19:45:39.181Z,10.40
2019-03-13T19:48:09.277Z,10.95
2019-03-13T19:50:39.935Z,10.93
2019-03-13T19:53:10.727Z,10.87
2019-03-13T19:55:41.960Z,10.22
2019-03-13T19:58:12.075Z,10.46
2019-03-13T20:00:42.448Z,10.61
2019-03-13T20:03:12.562Z,10.16
2019-03-13T20:05:45.742Z,10.89
2019-03-13T20:08:14.590Z,10.34
2019-03-13T20:10:44.710Z,9.38
2019-03-13T20:13:14.728Z,10.34
2019-03-13T20:15:44.863Z,10.62
2019-03-13T20:18:14.796Z,10.66
2019-03-13T20:20:44.700Z,10.09
2019-03-13T20:23:14.699Z,10.37
2019-03-13T20:25:44.721Z,10.30
2019-03-13T20:28:14.867Z,10.34
2019-03-13T20:30:44.989Z,10.72
2019-03-13T20:33:15.012Z,10.12
2019-03-13T20:35:45.006Z,10.96
2019-03-13T20:38:15.301Z,11.09
2019-03-13T20:40:45.228Z,11.03
2019-03-13T20:43:15.293Z,10.84
2019-03-13T20:45:45.285Z,10.84
2019-03-13T20:48:15.153Z,10.88
2019-03-13T20:50:45.019Z,10.84
2019-03-13T20:53:14.965Z,10.97
2019-03-13T20:55:44.952Z,9.86
2019-03-13T20:58:14.959Z,10.57
2019-03-13T21:00:45.180Z,10.22
2019-03-13T21:03:15.137Z,10.53
2019-03-13T21:05:45.050Z,10.01
2019-03-13T21:08:14.973Z,10.25
2019-03-13T21:10:44.861Z,10.36
2019-03-13T21:13:14.814Z,10.91
2019-03-13T21:15:44.701Z,10.79
2019-03-13T21:18:14.619Z,11.05
2019-03-13T21:20:44.832Z,10.32
2019-03-13T21:23:15.321Z,10.60
2019-03-13T21:25:45.436Z,10.72
2019-03-13T21:28:15.362Z,10.90
2019-03-13T21:30:45.778Z,10.57
2019-03-13T21:33:17.016Z,10.79
2019-03-13T21:35:46.940Z,11.17
2019-03-13T21:38:16.879Z,11.06
2019-03-13T21:40:47.091Z,10.04
2019-03-13T21:43:17.525Z,9.63
2019-03-13T21:45:47.869Z,10.56
2019-03-13T21:48:18.353Z,10.57
2019-03-13T21:50:50.358Z,10.54
2019-03-13T21:53:20.811Z,9.48
2019-03-13T21:55:50.709Z,10.26
2019-03-13T21:58:20.776Z,9.92
2019-03-13T22:00:50.772Z,10.04
2019-03-13T22:03:29.582Z,10.22
2019-03-13T22:05:52.679Z,10.60
2019-03-13T22:08:22.719Z,9.76
2019-03-13T22:10:52.860Z,10.46
2019-03-13T22:13:22.938Z,10.12
2019-03-13T22:15:53.307Z,10.17
2019-03-13T22:18:23.605Z,9.73
2019-03-13T22:20:54.099Z,10.36
2019-03-13T22:23:24.554Z,9.61
2019-03-13T22:25:54.859Z,10.28
2019-03-13T22:28:24.745Z,9.15
2019-03-13T22:30:54.617Z,9.60
2019-03-13T22:33:24.613Z,10.38
2019-03-13T22:35:54.859Z,9.63
2019-03-13T22:38:25.644Z,9.66
2019-03-13T22:40:55.527Z,9.24
2019-03-13T22:43:25.667Z,12.72
2019-03-13T22:45:55.603Z,11.33
2019-03-13T22:48:25.553Z,11.98
2019-03-13T22:50:55.504Z,11.36
2019-03-13T22:53:25.462Z,11.04
2019-03-13T22:55:55.375Z,10.68
2019-03-13T22:58:25.345Z,10.00
2019-03-13T23:01:02.104Z,10.27
2019-03-13T23:03:32.460Z,10.58
2019-03-13T23:06:02.891Z,10.42
2019-03-13T23:08:32.852Z,9.16
2019-03-13T23:11:02.848Z,9.10
2019-03-13T23:13:32.783Z,9.48
2019-03-13T23:16:02.767Z,9.43
2019-03-13T23:18:32.693Z,10.00
2019-03-13T23:21:03.332Z,9.36
2019-03-13T23:23:33.239Z,9.22
2019-03-13T23:26:03.225Z,9.77
2019-03-13T23:28:33.351Z,9.52
2019-03-13T23:31:03.257Z,9.82
2019-03-13T23:33:33.547Z,9.52
2019-03-13T23:36:03.538Z,10.13
2019-03-13T23:38:33.619Z,10.27
2019-03-13T23:43:23.855Z,9.44
2019-03-13T23:45:53.838Z,9.63
2019-03-13T23:48:24.364Z,9.22
2019-03-13T23:50:54.318Z,9.22
2019-03-13T23:53:24.463Z,9.23
2019-03-13T23:55:54.466Z,8.72
2019-03-13T23:58:24.361Z,9.66
